Time;durP1;ratioP1;P1;durP2;ratioP2;P2;SDS_P1;SDS_P2;PMS_P1;PMS_P2;Temp;Humidity;BMP_temperature;BMP_pressure;BME280_temperature;BME280_humidity;BME280_pressure;Samples;Min_cycle;Max_cycle;Signal;HPM_P1;HPM_P2
2022/06/28 00:02:00;;;;;;;8.23;5.47;;;;;;;;;;6128621;23;20180;-46
2022/06/28 00:04:27;;;;;;;5.85;5.15;;;;;;;;;;6127590;23;20225;-47
2022/06/28 00:06:56;;;;;;;6.65;5.60;;;;;;;;;;6129408;23;20237;-46
2022/06/28 00:09:30;;;;;;;6.45;5.78;;;;;;;;;;6128305;23;20264;-48
2022/06/28 00:12:05;;;;;;;9.52;6.20;;;;;;;;;;6128741;23;20168;-47
2022/06/28 00:17:20;;;;;;;8.02;6.15;;;;;;;;;;6127857;23;20174;-49
2022/06/28 00:19:46;;;;;;;8.18;6.22;;;;;;;;;;6126973;23;20189;-52
2022/06/28 00:22:13;;;;;;;9.55;6.35;;;;;;;;;;6126058;23;20182;-46
2022/06/28 00:24:41;;;;;;;12.07;5.95;;;;;;;;;;6126353;23;20173;-47
2022/06/28 00:27:08;;;;;;;7.05;6.15;;;;;;;;;;6126259;23;20170;-46
2022/06/28 00:29:35;;;;;;;7.72;6.28;;;;;;;;;;6125839;23;20189;-47
2022/06/28 00:32:02;;;;;;;12.13;6.57;;;;;;;;;;6126651;23;20170;-48
2022/06/28 00:34:29;;;;;;;9.75;6.43;;;;;;;;;;6101827;23;20173;-47
2022/06/28 00:36:56;;;;;;;10.10;6.28;;;;;;;;;;6127649;23;20174;-46
2022/06/28 00:39:23;;;;;;;15.07;6.82;;;;;;;;;;6128072;23;20245;-48
2022/06/28 00:41:50;;;;;;;8.82;6.68;;;;;;;;;;6128363;23;20180;-47
2022/06/28 00:44:20;;;;;;;11.73;6.53;;;;;;;;;;6127481;23;20171;-48
2022/06/28 00:46:48;;;;;;;14.50;6.55;;;;;;;;;;6103013;23;20162;-47
2022/06/28 00:49:15;;;;;;;10.57;6.07;;;;;;;;;;6128411;23;20281;-48
2022/06/28 00:51:42;;;;;;;13.43;7.13;;;;;;;;;;6128504;23;20194;-47
2022/06/28 00:54:09;;;;;;;8.32;6.65;;;;;;;;;;6103131;23;20178;-47
2022/06/28 00:56:36;;;;;;;8.52;6.90;;;;;;;;;;6102639;23;20605;-47
2022/06/28 00:59:03;;;;;;;7.90;6.57;;;;;;;;;;6128459;23;20175;-47
2022/06/28 01:01:30;;;;;;;10.48;6.82;;;;;;;;;;6128454;23;20224;-46
2022/06/28 01:03:59;;;;;;;8.85;6.85;;;;;;;;;;6102963;23;20174;-47
2022/06/28 01:06:26;;;;;;;10.25;6.80;;;;;;;;;;6128518;23;20249;-48
2022/06/28 01:08:53;;;;;;;13.13;6.55;;;;;;;;;;6103173;23;20476;-49
2022/06/28 01:11:23;;;;;;;9.38;6.30;;;;;;;;;;6104921;23;20194;-47
2022/06/28 01:14:03;;;;;;;14.93;6.85;;;;;;;;;;6105048;23;20180;-49
2022/06/28 01:16:50;;;;;;;8.82;6.57;;;;;;;;;;6104817;23;20656;-47
2022/06/28 01:19:19;;;;;;;10.23;6.97;;;;;;;;;;6081485;23;20245;-47
2022/06/28 01:21:53;;;;;;;8.50;7.18;;;;;;;;;;6081820;23;20664;-49
2022/06/28 01:24:24;;;;;;;13.75;7.70;;;;;;;;;;6105169;23;20163;-49
2022/06/28 01:27:14;;;;;;;10.82;7.72;;;;;;;;;;6130339;23;20154;-47
2022/06/28 01:29:41;;;;;;;15.88;6.70;;;;;;;;;;6104405;23;20269;-49
2022/06/28 01:32:38;;;;;;;16.80;6.93;;;;;;;;;;6102053;23;20475;-47
2022/06/28 01:35:10;;;;;;;13.02;6.05;;;;;;;;;;6104185;23;20630;-47
2022/06/28 01:37:37;;;;;;;11.63;6.70;;;;;;;;;;6104040;23;20605;-47
2022/06/28 01:40:05;;;;;;;12.02;6.95;;;;;;;;;;6104324;23;20185;-47
2022/06/28 01:42:33;;;;;;;13.43;6.50;;;;;;;;;;6103987;23;20174;-47
2022/06/28 01:45:00;;;;;;;12.32;7.50;;;;;;;;;;6104337;23;20462;-46
2022/06/28 01:47:35;;;;;;;15.73;7.18;;;;;;;;;;6104439;23;20170;-47
2022/06/28 01:50:11;;;;;;;10.07;6.88;;;;;;;;;;6129334;23;20212;-48
2022/06/28 01:52:43;;;;;;;12.80;6.00;;;;;;;;;;6104374;23;20501;-48
2022/06/28 01:55:29;;;;;;;8.75;6.95;;;;;;;;;;6129743;23;20169;-47
2022/06/28 01:57:58;;;;;;;11.98;7.88;;;;;;;;;;6104293;23;20171;-48
2022/06/28 02:00:25;;;;;;;13.95;7.30;;;;;;;;;;6104120;23;20170;-46
2022/06/28 02:02:57;;;;;;;10.80;7.35;;;;;;;;;;6103829;23;20159;-47
2022/06/28 02:05:43;;;;;;;11.73;6.88;;;;;;;;;;6129246;23;20217;-47
2022/06/28 02:08:11;;;;;;;7.60;6.68;;;;;;;;;;6104089;23;20170;-48
2022/06/28 02:10:47;;;;;;;8.57;7.40;;;;;;;;;;6104047;23;20185;-48
2022/06/28 02:13:14;;;;;;;10.13;6.75;;;;;;;;;;6103798;23;20171;-48
2022/06/28 02:15:42;;;;;;;12.52;7.75;;;;;;;;;;6104186;23;20189;-51
2022/06/28 02:18:09;;;;;;;12.13;7.22;;;;;;;;;;6104201;23;20181;-50
2022/06/28 02:20:37;;;;;;;12.32;7.82;;;;;;;;;;6103600;23;20185;-47
2022/06/28 02:23:04;;;;;;;12.60;7.57;;;;;;;;;;6103979;23;20474;-47
2022/06/28 02:25:31;;;;;;;10.07;7.22;;;;;;;;;;6104174;23;20170;-48
2022/06/28 02:27:58;;;;;;;9.60;6.82;;;;;;;;;;6103529;23;20237;-50
2022/06/28 02:30:26;;;;;;;10.38;7.18;;;;;;;;;;6129239;23;20253;-47
2022/06/28 02:32:53;;;;;;;11.48;6.43;;;;;;;;;;6103433;23;20610;-46
2022/06/28 02:40:51;;;;;;;8.93;6.72;;;;;;;;;;6129887;23;20217;-49
2022/06/28 02:43:19;;;;;;;10.32;7.00;;;;;;;;;;6102025;23;20174;-47
2022/06/28 02:45:46;;;;;;;11.65;7.13;;;;;;;;;;6103789;23;20174;-49
2022/06/28 02:48:14;;;;;;;9.35;7.40;;;;;;;;;;6129280;23;20473;-48
2022/06/28 02:50:41;;;;;;;10.77;7.03;;;;;;;;;;6128600;23;20210;-50
2022/06/28 02:53:08;;;;;;;10.68;7.35;;;;;;;;;;6102889;23;20502;-47
2022/06/28 02:55:35;;;;;;;10.00;7.45;;;;;;;;;;6128988;23;20185;-48
2022/06/28 02:58:02;;;;;;;9.18;7.43;;;;;;;;;;6103919;23;20170;-47
2022/06/28 03:00:29;;;;;;;8.82;7.07;;;;;;;;;;6129267;23;20184;-45
2022/06/28 03:02:57;;;;;;;12.75;7.90;;;;;;;;;;6103426;23;20182;-50
2022/06/28 03:05:24;;;;;;;10.82;7.50;;;;;;;;;;6103502;23;20185;-47
2022/06/28 03:07:52;;;;;;;10.77;8.27;;;;;;;;;;6103722;23;20253;-49
2022/06/28 03:10:22;;;;;;;8.90;7.68;;;;;;;;;;6103353;23;20186;-48
2022/06/28 03:12:49;;;;;;;11.43;7.68;;;;;;;;;;6128845;23;20472;-45
2022/06/28 03:15:16;;;;;;;12.63;7.93;;;;;;;;;;6128750;23;20177;-47
2022/06/28 03:17:49;;;;;;;11.43;7.28;;;;;;;;;;6103638;23;20159;-46
2022/06/28 03:20:16;;;;;;;12.30;7.25;;;;;;;;;;6103669;23;20197;-47
2022/06/28 03:22:43;;;;;;;11.98;7.30;;;;;;;;;;6103180;23;20628;-50
2022/06/28 03:25:10;;;;;;;11.32;7.47;;;;;;;;;;6104157;23;20249;-46
2022/06/28 03:27:37;;;;;;;9.27;7.20;;;;;;;;;;6128529;23;20185;-47
2022/06/28 03:30:05;;;;;;;10.13;7.68;;;;;;;;;;6103370;23;20222;-47
2022/06/28 03:32:32;;;;;;;8.85;7.95;;;;;;;;;;6103491;23;20249;-49
2022/06/28 03:35:03;;;;;;;11.82;8.18;;;;;;;;;;6103504;23;20174;-47
2022/06/28 03:37:30;;;;;;;10.00;7.32;;;;;;;;;;6102963;23;20260;-49
2022/06/28 03:40:01;;;;;;;14.65;8.35;;;;;;;;;;6103699;23;20244;-51
2022/06/28 03:42:28;;;;;;;10.77;7.70;;;;;;;;;;6103096;23;20185;-49
2022/06/28 03:44:56;;;;;;;12.55;7.63;;;;;;;;;;6103399;23;20171;-52
2022/06/28 03:47:24;;;;;;;13.45;8.93;;;;;;;;;;6079585;23;20178;-49
2022/06/28 03:50:04;;;;;;;8.73;7.18;;;;;;;;;;6128246;23;20649;-55
2022/06/28 03:53:01;;;;;;;9.80;8.05;;;;;;;;;;6107135;23;20170;-53
2022/06/28 03:55:46;;;;;;;15.02;8.65;;;;;;;;;;6129160;23;20174;-52
2022/06/28 03:58:14;;;;;;;11.30;8.00;;;;;;;;;;6103322;23;20170;-50
2022/06/28 04:00:41;;;;;;;10.13;8.52;;;;;;;;;;6102965;23;20210;-47
2022/06/28 04:03:09;;;;;;;10.77;8.18;;;;;;;;;;6103616;23;20170;-47
2022/06/28 04:05:41;;;;;;;10.30;7.63;;;;;;;;;;6103357;23;20213;-47
2022/06/28 04:08:09;;;;;;;11.43;8.40;;;;;;;;;;6102902;23;20253;-47
2022/06/28 04:10:40;;;;;;;15.25;8.73;;;;;;;;;;6103525;23;20182;-47
2022/06/28 04:13:18;;;;;;;8.70;7.70;;;;;;;;;;6102721;23;20225;-51
2022/06/28 04:15:45;;;;;;;13.40;8.27;;;;;;;;;;6103060;23;20178;-47
2022/06/28 04:18:18;;;;;;;11.45;8.57;;;;;;;;;;6102801;23;20162;-47
2022/06/28 04:21:06;;;;;;;13.23;8.52;;;;;;;;;;6128338;23;20166;-49
2022/06/28 04:23:35;;;;;;;12.07;9.02;;;;;;;;;;6096998;23;20213;-50
2022/06/28 04:26:03;;;;;;;11.88;8.75;;;;;;;;;;6101684;23;20281;-50
2022/06/28 04:28:40;;;;;;;11.77;8.13;;;;;;;;;;6101536;23;20198;-50
2022/06/28 04:31:12;;;;;;;16.55;8.18;;;;;;;;;;6101345;23;20512;-50
2022/06/28 04:33:39;;;;;;;9.52;7.97;;;;;;;;;;6126188;23;20268;-51
2022/06/28 04:36:08;;;;;;;12.00;7.90;;;;;;;;;;6100516;23;20221;-47
2022/06/28 04:38:38;;;;;;;10.25;8.18;;;;;;;;;;6100882;23;20202;-51
2022/06/28 04:41:08;;;;;;;9.35;7.35;;;;;;;;;;6101978;23;20213;-49
2022/06/28 04:43:41;;;;;;;10.90;7.53;;;;;;;;;;6125897;23;20512;-49
2022/06/28 04:46:10;;;;;;;10.32;7.65;;;;;;;;;;6099990;23;20205;-47
2022/06/28 04:48:39;;;;;;;10.32;6.72;;;;;;;;;;6100073;23;20194;-47
2022/06/28 04:51:12;;;;;;;10.15;7.18;;;;;;;;;;6100240;23;20206;-49
2022/06/28 04:53:45;;;;;;;14.15;7.38;;;;;;;;;;6100570;23;20208;-49
2022/06/28 04:56:14;;;;;;;13.45;7.35;;;;;;;;;;6100834;23;20202;-50
2022/06/28 04:58:46;;;;;;;12.93;7.07;;;;;;;;;;6101825;23;20194;-47
2022/06/28 05:01:13;;;;;;;12.27;7.38;;;;;;;;;;6101862;23;20297;-47
2022/06/28 05:03:44;;;;;;;7.78;6.47;;;;;;;;;;6101741;23;20622;-48
2022/06/28 05:06:17;;;;;;;12.57;7.03;;;;;;;;;;6126688;23;20659;-47
2022/06/28 05:08:56;;;;;;;15.98;6.93;;;;;;;;;;6128563;23;20154;-47
2022/06/28 05:11:44;;;;;;;6.45;5.75;;;;;;;;;;6102859;23;20508;-47
2022/06/28 05:14:18;;;;;;;9.27;5.95;;;;;;;;;;6102532;23;20166;-52
2022/06/28 05:16:45;;;;;;;8.40;6.47;;;;;;;;;;6102945;23;20170;-47
2022/06/28 05:19:13;;;;;;;11.25;6.07;;;;;;;;;;6096830;23;20459;-49
2022/06/28 05:21:40;;;;;;;9.45;6.93;;;;;;;;;;6127068;23;20198;-47
2022/06/28 05:24:07;;;;;;;9.07;5.90;;;;;;;;;;6126825;23;20327;-53
2022/06/28 05:26:40;;;;;;;8.50;6.15;;;;;;;;;;6126731;23;20656;-47
2022/06/28 05:29:12;;;;;;;7.32;5.40;;;;;;;;;;6101561;23;20224;-51
2022/06/28 05:31:39;;;;;;;11.55;6.45;;;;;;;;;;6101638;23;20220;-50
2022/06/28 05:34:07;;;;;;;7.15;5.70;;;;;;;;;;6101002;23;20287;-49
2022/06/28 05:36:37;;;;;;;9.82;5.53;;;;;;;;;;6101340;23;20526;-50
2022/06/28 05:39:05;;;;;;;7.05;5.10;;;;;;;;;;6126680;23;20582;-49
2022/06/28 05:41:32;;;;;;;6.35;4.80;;;;;;;;;;6101749;23;20209;-49
2022/06/28 05:44:00;;;;;;;6.82;4.30;;;;;;;;;;6101821;23;20273;-50
2022/06/28 05:46:28;;;;;;;4.97;4.22;;;;;;;;;;6127268;23;20213;-47
2022/06/28 05:48:56;;;;;;;7.35;5.10;;;;;;;;;;6123174;23;20221;-54
2022/06/28 05:51:23;;;;;;;5.70;4.88;;;;;;;;;;6101050;23;20253;-54
2022/06/28 05:53:50;;;;;;;8.35;4.88;;;;;;;;;;6100531;23;20205;-53
2022/06/28 05:56:18;;;;;;;5.32;4.22;;;;;;;;;;6101044;23;20508;-54
2022/06/28 05:58:45;;;;;;;4.63;4.22;;;;;;;;;;6127201;23;20205;-54
2022/06/28 06:01:12;;;;;;;8.70;4.13;;;;;;;;;;6121176;23;20691;-53
2022/06/28 06:03:39;;;;;;;7.63;3.80;;;;;;;;;;6101252;23;20495;-56
2022/06/28 06:06:06;;;;;;;6.25;4.50;;;;;;;;;;6096810;23;20537;-52
2022/06/28 06:08:35;;;;;;;22.17;14.95;;;;;;;;;;6102260;23;20232;-54
2022/06/28 06:11:03;;;;;;;6.80;5.97;;;;;;;;;;6101204;23;20284;-52
2022/06/28 06:13:30;;;;;;;5.55;3.63;;;;;;;;;;6102182;23;20198;-53
2022/06/28 06:15:57;;;;;;;6.43;3.50;;;;;;;;;;6102098;23;20198;-56
2022/06/28 06:18:25;;;;;;;4.78;3.60;;;;;;;;;;6127394;23;20194;-64
2022/06/28 06:20:53;;;;;;;6.55;3.63;;;;;;;;;;6100619;23;20213;-57
2022/06/28 06:23:20;;;;;;;6.47;4.05;;;;;;;;;;6077898;23;20226;-58
2022/06/28 06:25:59;;;;;;;6.90;3.70;;;;;;;;;;6128266;23;20189;-58
2022/06/28 06:28:26;;;;;;;3.92;3.35;;;;;;;;;;6101773;23;20281;-58
2022/06/28 06:30:53;;;;;;;6.22;3.38;;;;;;;;;;6101201;23;20209;-57
2022/06/28 06:33:41;;;;;;;7.30;3.33;;;;;;;;;;6127599;23;20198;-58
2022/06/28 06:36:16;;;;;;;9.05;3.33;;;;;;;;;;6125979;23;20194;-59
2022/06/28 06:38:44;;;;;;;5.78;3.40;;;;;;;;;;6102387;23;20194;-58
2022/06/28 06:41:11;;;;;;;13.45;8.73;;;;;;;;;;6101190;23;20251;-58
2022/06/28 06:43:42;;;;;;;8.15;4.50;;;;;;;;;;6126696;23;20249;-58
2022/06/28 06:46:14;;;;;;;6.45;2.97;;;;;;;;;;6126573;23;20194;-57
2022/06/28 06:48:49;;;;;;;7.55;3.20;;;;;;;;;;6120024;23;20313;-58
2022/06/28 06:51:16;;;;;;;3.83;3.08;;;;;;;;;;6127209;23;20217;-58
2022/06/28 06:53:44;;;;;;;6.78;3.17;;;;;;;;;;6125562;23;20198;-58
2022/06/28 06:56:11;;;;;;;7.55;3.35;;;;;;;;;;6101241;23;20198;-59
2022/06/28 06:58:38;;;;;;;7.22;2.90;;;;;;;;;;6101119;23;20205;-57
2022/06/28 07:01:05;;;;;;;3.95;3.00;;;;;;;;;;6100124;23;20571;-57
2022/06/28 07:03:53;;;;;;;3.58;2.88;;;;;;;;;;6100772;23;20205;-58
2022/06/28 07:06:21;;;;;;;3.92;3.03;;;;;;;;;;6102208;23;20497;-58
2022/06/28 07:08:48;;;;;;;5.00;3.30;;;;;;;;;;6100705;23;20411;-58
2022/06/28 07:11:16;;;;;;;3.60;3.30;;;;;;;;;;6100868;23;20264;-58
2022/06/28 07:13:43;;;;;;;5.88;3.42;;;;;;;;;;6124847;23;20712;-58
2022/06/28 07:16:11;;;;;;;4.20;3.22;;;;;;;;;;6100454;23;20194;-58
2022/06/28 07:18:40;;;;;;;4.28;3.08;;;;;;;;;;6100787;23;20501;-57
2022/06/28 07:21:07;;;;;;;4.47;3.25;;;;;;;;;;6127743;23;20198;-58
2022/06/28 07:23:34;;;;;;;5.70;3.45;;;;;;;;;;6102486;23;20257;-58
2022/06/28 07:26:02;;;;;;;6.07;3.45;;;;;;;;;;6102724;23;20194;-58
2022/06/28 07:28:31;;;;;;;4.45;3.08;;;;;;;;;;6126083;23;20203;-58
2022/06/28 07:30:59;;;;;;;8.20;3.13;;;;;;;;;;6100184;23;20557;-55
2022/06/28 07:33:26;;;;;;;8.15;3.20;;;;;;;;;;6098823;23;20206;-57
2022/06/28 07:35:54;;;;;;;10.07;3.40;;;;;;;;;;6100072;23;20206;-57
2022/06/28 07:38:21;;;;;;;4.10;3.10;;;;;;;;;;6125203;23;20202;-56
2022/06/28 07:41:07;;;;;;;3.42;3.00;;;;;;;;;;6125335;23;20194;-58
2022/06/28 07:44:01;;;;;;;5.75;3.25;;;;;;;;;;6113543;23;20281;-56
2022/06/28 07:46:30;;;;;;;5.55;3.10;;;;;;;;;;6101797;23;20194;-57
2022/06/28 07:48:57;;;;;;;4.22;3.10;;;;;;;;;;6101299;23;20210;-57
2022/06/28 07:54:16;;;;;;;4.25;3.03;;;;;;;;;;6102033;23;20590;-58
2022/06/28 07:57:06;;;;;;;5.00;3.05;;;;;;;;;;6101615;23;20304;-54
2022/06/28 07:59:37;;;;;;;6.43;2.90;;;;;;;;;;6101599;23;20163;-55
2022/06/28 08:02:04;;;;;;;4.13;3.25;;;;;;;;;;6101858;23;20185;-56
2022/06/28 08:04:34;;;;;;;6.65;2.97;;;;;;;;;;6101915;23;20174;-46
2022/06/28 08:07:02;;;;;;;4.15;2.85;;;;;;;;;;6101555;23;20174;-58
2022/06/28 08:09:30;;;;;;;7.03;3.22;;;;;;;;;;6126387;23;20239;-57
2022/06/28 08:11:58;;;;;;;9.45;2.80;;;;;;;;;;6095904;23;20249;-57
2022/06/28 08:14:27;;;;;;;9.25;3.10;;;;;;;;;;6101460;23;20198;-57
2022/06/28 08:16:54;;;;;;;5.45;2.65;;;;;;;;;;6101685;23;20197;-57
2022/06/28 08:19:21;;;;;;;3.78;2.58;;;;;;;;;;6126948;23;20194;-56
2022/06/28 08:21:50;;;;;;;2.90;2.60;;;;;;;;;;6100794;23;20201;-57
2022/06/28 08:24:17;;;;;;;7.60;3.30;;;;;;;;;;6102201;23;20208;-58
2022/06/28 08:26:44;;;;;;;5.28;2.72;;;;;;;;;;6100661;23;20213;-57
2022/06/28 08:29:14;;;;;;;9.32;5.40;;;;;;;;;;6101946;23;20198;-57
2022/06/28 08:31:42;;;;;;;3.88;2.55;;;;;;;;;;6102098;23;20214;-57
2022/06/28 08:34:10;;;;;;;5.47;2.42;;;;;;;;;;6101667;23;20174;-57
2022/06/28 08:36:37;;;;;;;3.97;2.65;;;;;;;;;;6126737;23;20611;-56
2022/06/28 08:39:05;;;;;;;4.72;2.13;;;;;;;;;;6126548;23;20185;-57
2022/06/28 08:41:33;;;;;;;3.33;2.33;;;;;;;;;;6126961;23;20184;-57
2022/06/28 08:44:01;;;;;;;6.45;2.78;;;;;;;;;;6126688;23;20566;-58
2022/06/28 08:46:31;;;;;;;5.10;2.58;;;;;;;;;;6126640;23;20170;-57
2022/06/28 08:49:02;;;;;;;3.35;2.45;;;;;;;;;;6101854;23;20228;-57
2022/06/28 08:51:33;;;;;;;6.30;2.20;;;;;;;;;;6126590;23;20181;-57
2022/06/28 08:54:02;;;;;;;4.20;2.13;;;;;;;;;;6101650;23;20184;-57
2022/06/28 08:56:29;;;;;;;3.15;2.00;;;;;;;;;;6101398;23;20601;-58
2022/06/28 08:58:58;;;;;;;4.32;2.10;;;;;;;;;;6127100;23;20178;-57
2022/06/28 09:01:26;;;;;;;5.80;2.75;;;;;;;;;;6126909;23;20256;-58
2022/06/28 09:03:54;;;;;;;7.03;2.60;;;;;;;;;;6126723;23;20170;-57
2022/06/28 09:06:23;;;;;;;5.47;2.13;;;;;;;;;;6126934;23;20182;-58
2022/06/28 09:08:50;;;;;;;4.18;2.22;;;;;;;;;;6126440;23;20178;-58
2022/06/28 09:11:17;;;;;;;5.85;2.15;;;;;;;;;;6126137;23;20190;-58
2022/06/28 09:13:44;;;;;;;4.97;2.38;;;;;;;;;;6126818;23;20170;-57
2022/06/28 09:16:13;;;;;;;4.68;2.58;;;;;;;;;;6126845;23;20257;-58
2022/06/28 09:18:40;;;;;;;3.30;2.50;;;;;;;;;;6126338;23;20189;-58
2022/06/28 09:21:15;;;;;;;4.68;3.22;;;;;;;;;;6126598;23;20174;-57
2022/06/28 09:23:45;;;;;;;3.03;2.22;;;;;;;;;;6101355;23;20245;-58
2022/06/28 09:26:19;;;;;;;8.15;3.33;;;;;;;;;;6126610;23;20165;-58
2022/06/28 09:28:51;;;;;;;4.88;2.33;;;;;;;;;;6126804;23;20169;-51
2022/06/28 09:31:26;;;;;;;5.43;2.38;;;;;;;;;;6127776;23;20186;-54
2022/06/28 09:34:03;;;;;;;7.35;2.63;;;;;;;;;;6128733;23;20488;-55
2022/06/28 09:36:34;;;;;;;4.28;2.47;;;;;;;;;;6128144;23;20166;-56
2022/06/28 09:39:16;;;;;;;7.57;2.53;;;;;;;;;;6128140;23;20186;-57
2022/06/28 09:41:49;;;;;;;9.65;2.80;;;;;;;;;;6128495;23;20163;-55
2022/06/28 09:44:36;;;;;;;2.78;2.42;;;;;;;;;;6128618;23;20217;-56
2022/06/28 09:47:05;;;;;;;4.50;2.40;;;;;;;;;;6127742;23;20170;-57
2022/06/28 09:49:39;;;;;;;3.78;2.50;;;;;;;;;;6128344;23;20208;-55
2022/06/28 09:52:06;;;;;;;9.77;5.47;;;;;;;;;;6128686;23;20194;-57
2022/06/28 09:54:34;;;;;;;6.25;3.30;;;;;;;;;;6101047;23;20184;-56
2022/06/28 09:57:01;;;;;;;3.08;2.25;;;;;;;;;;6102977;23;20633;-62
2022/06/28 09:59:29;;;;;;;3.35;2.65;;;;;;;;;;6103466;23;20169;-56
2022/06/28 10:01:56;;;;;;;3.08;2.40;;;;;;;;;;6128218;23;20232;-58
2022/06/28 10:04:25;;;;;;;6.95;2.58;;;;;;;;;;6128118;23;20174;-57
2022/06/28 10:06:53;;;;;;;4.30;2.50;;;;;;;;;;6126612;23;20241;-57
2022/06/28 10:09:20;;;;;;;8.07;2.50;;;;;;;;;;6102882;23;20174;-56
2022/06/28 10:17:46;;;;;;;6.97;2.70;;;;;;;;;;6106277;23;20244;-56
2022/06/28 10:20:21;;;;;;;4.72;2.58;;;;;;;;;;6128036;23;20174;-55
2022/06/28 10:22:48;;;;;;;4.25;2.20;;;;;;;;;;6126934;23;20194;-54
2022/06/28 10:25:22;;;;;;;5.90;2.47;;;;;;;;;;6126547;23;20161;-56
2022/06/28 10:27:51;;;;;;;5.45;2.50;;;;;;;;;;6100821;23;20185;-54
2022/06/28 10:30:26;;;;;;;5.72;2.65;;;;;;;;;;6126841;23;20264;-57
2022/06/28 10:32:56;;;;;;;2.83;2.58;;;;;;;;;;6127118;23;20193;-53
2022/06/28 10:35:29;;;;;;;12.88;2.90;;;;;;;;;;6126556;23;20174;-57
2022/06/28 10:38:07;;;;;;;4.32;3.17;;;;;;;;;;6127043;23;20154;-56
2022/06/28 10:40:50;;;;;;;5.68;2.90;;;;;;;;;;6125859;23;20179;-58
2022/06/28 10:43:26;;;;;;;3.92;2.65;;;;;;;;;;6125861;23;20166;-58
2022/06/28 10:46:09;;;;;;;8.23;2.85;;;;;;;;;;6125929;23;20194;-58
2022/06/28 10:48:49;;;;;;;7.47;2.80;;;;;;;;;;6125973;23;20226;-58
2022/06/28 10:51:18;;;;;;;4.53;2.55;;;;;;;;;;6126201;23;20585;-57
2022/06/28 10:54:05;;;;;;;3.83;2.50;;;;;;;;;;6126480;23;20169;-57
2022/06/28 10:56:42;;;;;;;2.88;2.53;;;;;;;;;;6126904;23;20169;-56
2022/06/28 10:59:17;;;;;;;4.40;2.42;;;;;;;;;;6126449;23;20158;-58
2022/06/28 11:01:46;;;;;;;2.85;2.40;;;;;;;;;;6126862;23;20161;-63
2022/06/28 11:04:19;;;;;;;7.88;2.70;;;;;;;;;;6126564;23;20166;-59
2022/06/28 11:07:06;;;;;;;3.42;2.60;;;;;;;;;;6126667;23;20155;-60
2022/06/28 11:09:48;;;;;;;3.97;2.72;;;;;;;;;;6126998;23;20155;-57
2022/06/28 11:12:16;;;;;;;5.40;2.50;;;;;;;;;;6126096;23;20196;-48
2022/06/28 11:14:52;;;;;;;10.80;2.60;;;;;;;;;;6126559;23;20170;-55
2022/06/28 11:17:27;;;;;;;3.92;2.67;;;;;;;;;;6127001;23;20498;-52
2022/06/28 11:20:01;;;;;;;5.72;2.22;;;;;;;;;;6127132;23;20162;-55
2022/06/28 11:22:34;;;;;;;5.82;2.60;;;;;;;;;;6127741;23;20173;-55
2022/06/28 11:25:03;;;;;;;4.10;2.35;;;;;;;;;;6102206;23;20178;-52
2022/06/28 11:27:32;;;;;;;27.00;16.38;;;;;;;;;;6126960;23;20178;-49
2022/06/28 11:29:59;;;;;;;11.65;5.40;;;;;;;;;;6127250;23;20629;-49
2022/06/28 11:32:31;;;;;;;8.73;2.42;;;;;;;;;;6126761;23;20202;-51
2022/06/28 11:34:59;;;;;;;4.15;2.42;;;;;;;;;;6126987;23;20173;-50
2022/06/28 11:37:28;;;;;;;4.93;2.78;;;;;;;;;;6126807;23;20189;-48
2022/06/28 11:39:58;;;;;;;5.13;2.60;;;;;;;;;;6127438;23;20170;-50
2022/06/28 11:42:25;;;;;;;6.70;2.38;;;;;;;;;;6126643;23;20186;-47
2022/06/28 11:44:53;;;;;;;5.53;2.45;;;;;;;;;;6127085;23;20197;-51
2022/06/28 11:47:23;;;;;;;5.25;2.58;;;;;;;;;;6126962;23;20170;-49
2022/06/28 11:50:08;;;;;;;5.03;2.58;;;;;;;;;;6127512;23;20198;-48
2022/06/28 11:52:56;;;;;;;5.25;2.35;;;;;;;;;;6126466;23;20544;-52
2022/06/28 11:55:45;;;;;;;9.55;2.40;;;;;;;;;;6126071;23;20284;-51
2022/06/28 11:58:19;;;;;;;4.03;2.72;;;;;;;;;;6126967;23;20178;-48
2022/06/28 12:01:21;;;;;;;4.82;2.70;;;;;;;;;;6127513;23;20170;-50
2022/06/28 12:03:48;;;;;;;4.03;2.38;;;;;;;;;;6127350;23;20166;-57
2022/06/28 12:06:30;;;;;;;7.07;2.85;;;;;;;;;;6102159;23;20194;-57
2022/06/28 12:09:05;;;;;;;7.03;2.63;;;;;;;;;;6127157;23;20216;-54
2022/06/28 12:11:44;;;;;;;8.15;2.50;;;;;;;;;;6127603;23;20166;-55
2022/06/28 12:14:13;;;;;;;3.95;2.42;;;;;;;;;;6127275;23;20165;-52
2022/06/28 12:16:47;;;;;;;4.18;2.70;;;;;;;;;;6126915;23;20249;-55
2022/06/28 12:19:17;;;;;;;3.10;2.35;;;;;;;;;;6127196;23;20154;-52
2022/06/28 12:22:03;;;;;;;6.22;2.58;;;;;;;;;;6126998;23;20185;-53
2022/06/28 12:24:49;;;;;;;6.63;2.40;;;;;;;;;;6126820;23;20172;-50
2022/06/28 12:27:24;;;;;;;6.50;2.38;;;;;;;;;;6101229;23;20163;-54
2022/06/28 12:29:53;;;;;;;6.22;2.30;;;;;;;;;;6127007;23;20245;-56
2022/06/28 12:32:20;;;;;;;4.38;2.08;;;;;;;;;;6126452;23;20276;-53
2022/06/28 12:35:09;;;;;;;3.08;2.20;;;;;;;;;;6127213;23;20163;-56
2022/06/28 12:37:36;;;;;;;6.43;2.10;;;;;;;;;;6127006;23;20170;-58
2022/06/28 12:40:05;;;;;;;2.25;2.05;;;;;;;;;;6100943;23;20906;-57
2022/06/28 12:42:33;;;;;;;7.85;2.35;;;;;;;;;;6122622;23;20228;-55
2022/06/28 12:45:00;;;;;;;4.25;2.28;;;;;;;;;;6127276;23;20277;-57
2022/06/28 12:47:29;;;;;;;4.40;2.08;;;;;;;;;;6126951;23;20194;-57
2022/06/28 12:49:59;;;;;;;5.32;2.60;;;;;;;;;;6127415;23;20548;-57
2022/06/28 12:52:27;;;;;;;13.30;2.38;;;;;;;;;;6126724;23;20214;-57
2022/06/28 12:54:54;;;;;;;3.17;1.98;;;;;;;;;;6127512;23;20472;-57
2022/06/28 12:57:21;;;;;;;5.15;2.25;;;;;;;;;;6126762;23;20197;-58
2022/06/28 12:59:48;;;;;;;6.63;2.10;;;;;;;;;;6127134;23;20234;-57
2022/06/28 13:02:15;;;;;;;23.70;3.25;;;;;;;;;;6127244;23;20198;-58
2022/06/28 13:04:47;;;;;;;3.28;2.50;;;;;;;;;;6126100;23;20198;-57
2022/06/28 13:07:14;;;;;;;6.55;2.30;;;;;;;;;;6128018;23;20258;-58
2022/06/28 13:09:41;;;;;;;8.35;2.45;;;;;;;;;;6127627;23;20201;-58
2022/06/28 13:12:09;;;;;;;13.80;2.10;;;;;;;;;;6126920;23;20202;-57
2022/06/28 13:14:36;;;;;;;7.18;2.35;;;;;;;;;;6127175;23;20648;-59
2022/06/28 13:17:03;;;;;;;4.70;2.10;;;;;;;;;;6126703;23;20194;-58
2022/06/28 13:19:31;;;;;;;3.38;2.30;;;;;;;;;;6125824;23;20228;-58
2022/06/28 13:21:58;;;;;;;3.08;2.42;;;;;;;;;;6125974;23;20202;-57
2022/06/28 13:24:25;;;;;;;6.50;2.25;;;;;;;;;;6126403;23;20209;-58
2022/06/28 13:26:52;;;;;;;3.78;2.20;;;;;;;;;;6126060;23;20213;-58
2022/06/28 13:29:19;;;;;;;3.63;2.25;;;;;;;;;;6101386;23;20198;-59
2022/06/28 13:31:46;;;;;;;4.28;2.28;;;;;;;;;;6128148;23;20194;-58
2022/06/28 13:34:20;;;;;;;5.97;2.17;;;;;;;;;;6127156;23;20253;-59
2022/06/28 13:36:47;;;;;;;5.13;2.13;;;;;;;;;;6127679;23;20193;-58
2022/06/28 13:39:14;;;;;;;6.05;2.33;;;;;;;;;;6127267;23;20228;-58
2022/06/28 13:41:41;;;;;;;3.38;2.10;;;;;;;;;;6127420;23;20209;-58
2022/06/28 13:44:10;;;;;;;3.65;1.98;;;;;;;;;;6126746;23;20233;-58
2022/06/28 13:46:37;;;;;;;3.67;2.08;;;;;;;;;;6126705;23;20652;-58
2022/06/28 13:49:04;;;;;;;3.40;2.10;;;;;;;;;;6123603;23;20210;-59
2022/06/28 13:51:31;;;;;;;5.75;2.30;;;;;;;;;;6127568;23;20206;-58
2022/06/28 13:53:58;;;;;;;5.95;2.40;;;;;;;;;;6126591;23;20486;-59
2022/06/28 13:56:26;;;;;;;2.53;2.00;;;;;;;;;;6124234;23;20252;-58
2022/06/28 13:58:53;;;;;;;3.35;1.90;;;;;;;;;;6126983;23;20201;-58
2022/06/28 14:01:20;;;;;;;4.30;2.35;;;;;;;;;;6126406;23;20649;-57
2022/06/28 14:03:47;;;;;;;3.28;2.20;;;;;;;;;;6127348;23;20695;-58
2022/06/28 14:06:14;;;;;;;5.88;2.10;;;;;;;;;;6126728;23;20217;-58
2022/06/28 14:08:41;;;;;;;4.15;1.83;;;;;;;;;;6127419;23;20198;-58
2022/06/28 14:11:09;;;;;;;4.72;2.30;;;;;;;;;;6126237;23;20202;-58
2022/06/28 14:13:36;;;;;;;3.58;2.28;;;;;;;;;;6126787;23;20205;-57
2022/06/28 14:16:03;;;;;;;3.72;2.40;;;;;;;;;;6126185;23;20193;-58
2022/06/28 14:18:30;;;;;;;4.75;2.15;;;;;;;;;;6127310;23;20205;-58
2022/06/28 14:20:57;;;;;;;3.80;2.05;;;;;;;;;;6126663;23;20660;-55
2022/06/28 14:23:24;;;;;;;3.47;2.17;;;;;;;;;;6126907;23;20249;-58
2022/06/28 14:25:51;;;;;;;4.47;2.88;;;;;;;;;;6125892;23;20197;-58
2022/06/28 14:28:19;;;;;;;4.05;2.60;;;;;;;;;;6126631;23;20719;-58
2022/06/28 14:30:56;;;;;;;4.05;2.40;;;;;;;;;;6126821;23;20194;-56
2022/06/28 14:33:23;;;;;;;3.65;2.50;;;;;;;;;;6126409;23;20525;-57
2022/06/28 14:35:52;;;;;;;2.72;2.25;;;;;;;;;;6127123;23;20173;-57
2022/06/28 14:38:23;;;;;;;7.97;2.10;;;;;;;;;;6127177;23;20174;-57
2022/06/28 14:40:50;;;;;;;5.25;2.17;;;;;;;;;;6128457;23;20171;-56
2022/06/28 14:43:18;;;;;;;4.47;2.65;;;;;;;;;;6127444;23;20178;-55
2022/06/28 14:45:45;;;;;;;7.82;2.33;;;;;;;;;;6127476;23;20174;-56
2022/06/28 14:48:22;;;;;;;3.15;2.45;;;;;;;;;;6128154;23;20162;-56
2022/06/28 14:50:50;;;;;;;7.90;2.30;;;;;;;;;;6128753;23;20178;-56
2022/06/28 14:53:17;;;;;;;5.63;2.20;;;;;;;;;;6129338;23;20256;-55
2022/06/28 14:55:53;;;;;;;5.00;2.78;;;;;;;;;;6128914;23;20162;-55
2022/06/28 14:58:20;;;;;;;5.30;2.13;;;;;;;;;;6128917;23;20229;-56
2022/06/28 15:00:56;;;;;;;4.35;2.47;;;;;;;;;;6128995;23;20162;-56
2022/06/28 15:03:23;;;;;;;3.60;2.30;;;;;;;;;;6128479;23;20178;-57
2022/06/28 15:05:50;;;;;;;3.88;2.50;;;;;;;;;;6129143;23;20170;-57
2022/06/28 15:08:19;;;;;;;5.03;2.50;;;;;;;;;;6129119;23;20181;-57
2022/06/28 15:10:47;;;;;;;7.35;2.42;;;;;;;;;;6128509;23;20178;-58
2022/06/28 15:13:15;;;;;;;3.85;2.42;;;;;;;;;;6128940;23;20289;-57
2022/06/28 15:15:42;;;;;;;5.88;2.30;;;;;;;;;;6128931;23;20232;-57